Time;durP1;ratioP1;P1;durP2;ratioP2;P2;SDS_P1;SDS_P2;PMS_P1;PMS_P2;Temp;Humidity;BMP_temperature;BMP_pressure;BME280_temperature;BME280_humidity;BME280_pressure;Samples;Min_cycle;Max_cycle;Signal;HPM_P1;HPM_P2
2023/01/22 00:04:09;;;;;;;0.20;0.10;;;2.70;99.90;;;;;;21191100;27;20400;-69
2023/01/22 00:14:15;;;;;;;0.20;0.10;;;2.60;99.90;;;;;;21197954;27;20780;-69
2023/01/22 00:24:19;;;;;;;0.20;0.10;;;2.10;99.90;;;;;;21212590;27;20426;-69
2023/01/22 00:34:24;;;;;;;0.20;0.10;;;1.50;99.90;;;;;;21207638;27;20419;-69
2023/01/22 00:44:27;;;;;;;0.20;0.10;;;1.30;99.90;;;;;;21175429;27;20393;-69
2023/01/22 00:54:33;;;;;;;0.20;0.10;;;1.10;99.90;;;;;;21205914;27;20393;-68
2023/01/22 01:04:37;;;;;;;0.20;0.10;;;1.00;99.90;;;;;;21216863;27;20393;-68
2023/01/22 01:14:42;;;;;;;0.20;0.10;;;1.20;99.90;;;;;;21209494;27;20453;-69
2023/01/22 01:24:46;;;;;;;0.20;0.10;;;0.90;99.90;;;;;;21226076;27;20418;-67
2023/01/22 01:34:51;;;;;;;0.20;0.13;;;1.10;99.90;;;;;;21205158;27;20405;-69
2023/01/22 01:45:20;;;;;;;0.20;0.10;;;1.50;99.90;;;;;;21225744;27;20408;-69
2023/01/22 01:55:29;;;;;;;0.20;0.10;;;1.70;99.90;;;;;;21190897;27;20412;-69
2023/01/22 02:05:38;;;;;;;0.20;0.20;;;1.30;99.90;;;;;;21206709;27;20384;-68
2023/01/22 02:15:43;;;;;;;0.20;0.10;;;1.00;99.90;;;;;;21196389;27;20401;-69
2023/01/22 02:25:49;;;;;;;0.20;0.10;;;1.60;99.90;;;;;;21212822;27;20401;-69
2023/01/22 02:35:52;;;;;;;0.20;0.10;;;2.20;99.90;;;;;;21246936;27;20404;-71
2023/01/22 02:45:57;;;;;;;0.20;0.10;;;2.10;99.90;;;;;;21198530;27;20837;-69
2023/01/22 02:56:06;;;;;;;0.20;0.10;;;1.80;99.90;;;;;;21237749;27;20409;-69
2023/01/22 03:06:11;;;;;;;0.20;0.10;;;1.70;99.90;;;;;;21217525;27;20424;-68
2023/01/22 03:26:37;;;;;;;0.20;0.10;;;1.90;99.90;;;;;;21235537;27;20721;-68
2023/01/22 03:36:41;;;;;;;0.20;0.10;;;2.40;99.90;;;;;;21234192;27;20933;-69
2023/01/22 03:46:46;;;;;;;0.20;0.10;;;2.30;99.90;;;;;;21231359;27;20411;-69
2023/01/22 03:56:50;;;;;;;0.20;0.10;;;2.40;99.90;;;;;;21233271;27;20412;-69
2023/01/22 04:06:56;;;;;;;0.20;0.10;;;2.30;99.90;;;;;;21232661;27;20396;-69
2023/01/22 04:17:00;;;;;;;0.20;0.10;;;2.00;99.90;;;;;;21212768;27;20431;-69
2023/01/22 04:27:05;;;;;;;0.20;0.10;;;2.00;99.90;;;;;;21219237;27;20414;-69
2023/01/22 04:37:09;;;;;;;0.20;0.10;;;1.90;99.90;;;;;;21209826;28;20450;-69
2023/01/22 04:47:14;;;;;;;0.20;0.10;;;1.90;99.90;;;;;;21230304;28;20834;-70
2023/01/22 04:57:19;;;;;;;0.20;0.10;;;1.90;99.90;;;;;;21211812;28;20412;-71
2023/01/22 05:07:24;;;;;;;0.20;0.10;;;2.20;99.90;;;;;;21230391;28;20412;-70
2023/01/22 05:17:28;;;;;;;0.20;0.10;;;1.80;99.90;;;;;;21229815;28;20413;-71
2023/01/22 05:27:33;;;;;;;0.20;0.10;;;1.80;99.90;;;;;;21190832;28;20438;-70
2023/01/22 05:37:37;;;;;;;0.20;0.10;;;1.80;99.90;;;;;;21224585;27;20450;-71
2023/01/22 05:47:42;;;;;;;0.20;0.10;;;2.10;99.90;;;;;;21224202;27;20377;-71
2023/01/22 05:57:47;;;;;;;0.20;0.10;;;2.10;99.90;;;;;;21207287;27;20459;-69
2023/01/22 06:07:52;;;;;;;0.20;0.10;;;1.80;99.90;;;;;;21223422;27;20419;-69
2023/01/22 06:18:00;;;;;;;0.20;0.10;;;1.70;99.90;;;;;;21205472;27;20416;-70
2023/01/22 06:28:05;;;;;;;0.20;0.10;;;1.80;99.90;;;;;;21240234;27;20891;-70
2023/01/22 06:38:11;;;;;;;0.20;0.10;;;2.20;99.90;;;;;;21238653;27;20458;-69
2023/01/22 06:48:16;;;;;;;0.20;0.10;;;2.20;99.90;;;;;;21219918;27;20412;-69
2023/01/22 06:58:20;;;;;;;0.20;0.10;;;1.80;99.90;;;;;;21218985;27;20401;-70
2023/01/22 07:08:26;;;;;;;0.20;0.10;;;1.80;99.90;;;;;;21236190;27;20402;-70
2023/01/22 07:18:30;;;;;;;0.20;0.10;;;2.00;99.90;;;;;;21209118;27;20495;-70
2023/01/22 07:28:35;;;;;;;0.20;0.10;;;1.80;99.90;;;;;;21216238;27;20397;-70
2023/01/22 07:38:39;;;;;;;0.20;0.10;;;2.10;99.90;;;;;;21215263;27;20401;-71
2023/01/22 07:48:46;;;;;;;0.20;0.10;;;2.20;99.90;;;;;;21233046;27;20483;-71
2023/01/22 07:58:49;;;;;;;0.20;0.10;;;2.30;99.90;;;;;;21231691;27;20411;-70
2023/01/22 08:08:55;;;;;;;0.20;0.10;;;2.60;99.90;;;;;;21212651;27;20420;-69
2023/01/22 08:18:58;;;;;;;0.20;0.10;;;3.00;99.90;;;;;;21230514;27;20454;-70
2023/01/22 08:29:04;;;;;;;0.20;0.10;;;3.70;99.90;;;;;;21212304;27;20422;-70
2023/01/22 08:39:10;;;;;;;0.20;0.10;;;4.30;99.90;;;;;;21211533;28;20405;-69
2023/01/22 08:49:16;;;;;;;0.20;0.10;;;4.60;99.90;;;;;;21195364;28;20385;-71
2023/01/22 08:59:21;;;;;;;0.20;0.10;;;5.10;99.90;;;;;;21211558;28;20404;-70
2023/01/22 09:09:26;;;;;;;0.20;0.10;;;5.90;99.90;;;;;;21171235;27;20545;-70
2023/01/22 09:19:30;;;;;;;0.20;0.10;;;6.00;99.90;;;;;;21159579;28;20415;-70
2023/01/22 09:29:35;;;;;;;0.20;0.10;;;6.20;99.90;;;;;;21159004;28;20453;-72
2023/01/22 09:39:39;;;;;;;0.20;0.10;;;6.70;99.90;;;;;;21156244;28;20438;-71
2023/01/22 09:49:51;;;;;;;0.20;0.10;;;7.00;99.90;;;;;;21137152;28;20443;-71
2023/01/22 09:59:57;;;;;;;0.20;0.10;;;7.20;99.90;;;;;;21136225;27;20851;-71
2023/01/22 10:10:18;;;;;;;0.20;0.10;;;7.30;99.90;;;;;;21164815;27;20423;-70
2023/01/22 10:20:23;;;;;;;0.20;0.10;;;7.90;99.90;;;;;;21235087;27;20439;-71
2023/01/22 10:30:29;;;;;;;0.20;0.10;;;8.30;99.90;;;;;;21199278;27;20407;-70
2023/01/22 10:40:36;;;;;;;0.20;0.10;;;8.60;99.80;;;;;;21236573;27;20564;-70
2023/01/22 10:50:43;;;;;;;0.20;0.10;;;9.00;98.90;;;;;;21212505;27;20400;-70
2023/01/22 11:00:57;;;;;;;0.20;0.10;;;9.70;98.20;;;;;;21213066;27;20760;-72
2023/01/22 11:11:06;;;;;;;0.20;0.10;;;10.30;96.70;;;;;;21209412;27;20397;-71
2023/01/22 11:21:15;;;;;;;0.20;0.10;;;10.30;95.70;;;;;;21189636;27;20467;-71
2023/01/22 11:31:39;;;;;;;0.20;0.10;;;11.10;95.70;;;;;;21151435;27;20398;-71
2023/01/22 11:41:55;;;;;;;0.20;0.10;;;12.10;94.90;;;;;;21165749;27;20506;-70
2023/01/22 11:52:13;;;;;;;0.20;0.08;;;12.00;95.50;;;;;;21113974;27;20408;-70
2023/01/22 12:02:40;;;;;;;0.20;0.10;;;12.70;97.50;;;;;;21094715;27;20409;-70
2023/01/22 12:12:55;;;;;;;0.20;0.10;;;13.80;94.90;;;;;;21148826;27;20481;-69
2023/01/22 12:23:04;;;;;;;0.20;0.10;;;15.00;96.20;;;;;;21209171;27;20483;-74
2023/01/22 12:33:13;;;;;;;0.20;0.10;;;15.70;95.90;;;;;;21174324;27;20436;-70
2023/01/22 12:43:23;;;;;;;0.20;0.10;;;14.60;92.90;;;;;;21238536;27;20460;-71
2023/01/22 12:53:30;;;;;;;0.20;0.10;;;15.00;91.30;;;;;;21173096;27;20409;-70
2023/01/22 13:03:34;;;;;;;0.20;0.10;;;15.80;94.90;;;;;;21208666;27;20422;-70
2023/01/22 13:13:52;;;;;;;0.20;0.10;;;15.20;92.50;;;;;;21225199;27;20457;-71
2023/01/22 13:24:01;;;;;;;0.20;0.03;;;15.40;92.00;;;;;;21173210;27;20864;-70
2023/01/22 13:34:07;;;;;;;0.20;0.10;;;15.30;93.50;;;;;;21207527;27;20392;-71
2023/01/22 13:44:18;;;;;;;0.20;0.10;;;15.40;91.80;;;;;;21222478;27;20405;-72
2023/01/22 13:54:28;;;;;;;0.20;0.08;;;15.30;94.40;;;;;;21239184;27;20465;-69
2023/01/22 14:04:35;;;;;;;0.20;0.10;;;15.20;93.80;;;;;;21220151;27;20397;-70
2023/01/22 14:14:42;;;;;;;0.20;0.10;;;15.70;95.20;;;;;;21216337;27;20403;-69
2023/01/22 14:24:46;;;;;;;0.20;0.10;;;16.30;93.20;;;;;;21176290;27;20399;-71
2023/01/22 14:34:51;;;;;;;0.20;0.10;;;17.10;94.60;;;;;;21175535;27;20409;-71
2023/01/22 14:44:55;;;;;;;0.20;0.10;;;18.40;94.40;;;;;;21229111;27;20389;-72
2023/01/22 14:55:00;;;;;;;0.20;0.10;;;17.60;93.60;;;;;;21197488;27;20440;-72
2023/01/22 15:05:04;;;;;;;0.20;0.10;;;16.80;93.00;;;;;;21145541;28;20897;-72
2023/01/22 15:15:10;;;;;;;0.20;0.10;;;15.30;94.30;;;;;;21109374;28;20399;-71
2023/01/22 15:25:14;;;;;;;0.20;0.10;;;16.40;94.10;;;;;;21140800;27;20391;-71
2023/01/22 15:35:19;;;;;;;0.20;0.10;;;16.70;94.40;;;;;;21126297;28;20429;-71
2023/01/22 15:45:24;;;;;;;0.20;0.10;;;16.00;95.00;;;;;;21125939;28;20616;-72
2023/01/22 15:55:29;;;;;;;0.20;0.10;;;14.90;98.30;;;;;;21122369;28;20417;-71
2023/01/22 16:05:33;;;;;;;0.20;0.00;;;14.00;98.50;;;;;;21115391;28;20382;-70
2023/01/22 16:15:38;;;;;;;0.20;0.10;;;12.80;99.90;;;;;;21140206;28;20440;-71
2023/01/22 16:25:42;;;;;;;0.20;0.10;;;11.50;99.90;;;;;;21190010;27;20553;-72
2023/01/22 16:35:47;;;;;;;0.20;0.10;;;11.10;99.90;;;;;;21205446;28;20419;-70
2023/01/22 16:45:54;;;;;;;0.20;0.10;;;10.50;99.90;;;;;;21223119;28;20411;-73
2023/01/22 16:56:03;;;;;;;0.20;0.10;;;10.10;99.90;;;;;;21198986;28;20408;-71
2023/01/22 17:06:13;;;;;;;0.20;0.10;;;10.00;99.90;;;;;;21224312;28;20393;-72
2023/01/22 17:16:20;;;;;;;0.20;0.10;;;9.80;99.90;;;;;;21203883;28;20512;-70
2023/01/22 17:26:23;;;;;;;0.20;0.00;;;9.50;99.90;;;;;;21192137;27;20405;-70
2023/01/22 17:36:29;;;;;;;0.20;0.10;;;9.30;99.90;;;;;;21240565;27;20763;-70
2023/01/22 17:46:34;;;;;;;0.20;0.10;;;8.90;99.90;;;;;;21220484;27;20902;-72
2023/01/22 17:56:46;;;;;;;0.20;0.00;;;8.70;99.90;;;;;;21148092;27;20405;-71
2023/01/22 18:06:51;;;;;;;0.20;0.00;;;7.40;99.90;;;;;;21167893;27;20797;-71
2023/01/22 18:16:57;;;;;;;0.20;0.10;;;6.70;99.90;;;;;;21139849;27;20458;-70
2023/01/22 18:27:01;;;;;;;0.20;0.10;;;6.60;99.90;;;;;;21195134;27;20465;-66
2023/01/22 18:37:06;;;;;;;0.20;0.10;;;5.80;99.90;;;;;;21177313;27;20871;-70
2023/01/22 18:47:10;;;;;;;0.20;0.10;;;6.00;99.90;;;;;;21129808;28;20452;-70
2023/01/22 18:57:16;;;;;;;0.20;0.10;;;5.40;99.90;;;;;;21129287;28;20415;-69
2023/01/22 19:07:20;;;;;;;0.20;0.10;;;5.30;99.90;;;;;;21162381;27;20911;-67
2023/01/22 19:17:25;;;;;;;0.20;0.10;;;5.60;99.90;;;;;;21229662;27;20408;-70
2023/01/22 19:27:30;;;;;;;0.20;0.10;;;5.80;99.90;;;;;;21210649;27;20611;-68
2023/01/22 19:37:35;;;;;;;0.20;0.10;;;6.30;99.90;;;;;;21107024;28;20487;-68
2023/01/22 19:47:39;;;;;;;0.20;0.10;;;6.10;99.90;;;;;;21124136;28;20450;-67
2023/01/22 19:57:45;;;;;;;0.20;0.10;;;6.50;99.90;;;;;;21170145;27;20465;-67
2023/01/22 20:07:49;;;;;;;0.20;0.10;;;7.20;99.90;;;;;;21225709;27;20888;-69
2023/01/22 20:17:54;;;;;;;0.50;0.50;;;6.20;99.90;;;;;;21138231;28;20414;-69
2023/01/22 20:28:02;;;;;;;0.20;0.20;;;5.70;99.90;;;;;;21189632;27;20471;-68
2023/01/22 20:38:07;;;;;;;0.20;0.08;;;5.70;99.90;;;;;;21206047;28;20470;-67
2023/01/22 20:48:12;;;;;;;0.20;0.10;;;5.80;99.90;;;;;;21175680;28;20389;-68
2023/01/22 20:58:18;;;;;;;0.20;0.07;;;5.90;99.90;;;;;;21192247;28;20445;-68
2023/01/22 21:08:22;;;;;;;0.20;0.10;;;5.90;99.90;;;;;;21217515;27;20460;-69
2023/01/22 21:18:27;;;;;;;0.20;0.10;;;5.70;99.90;;;;;;21201474;27;21149;-68
2023/01/22 21:28:31;;;;;;;0.20;0.10;;;5.20;99.90;;;;;;21147959;27;20749;-69
2023/01/22 21:38:37;;;;;;;0.20;0.10;;;5.00;99.90;;;;;;21164476;27;20999;-68
2023/01/22 21:48:41;;;;;;;0.20;0.10;;;4.80;99.90;;;;;;21227609;27;20389;-68
2023/01/22 21:58:46;;;;;;;0.20;0.10;;;5.00;99.90;;;;;;21189777;27;20414;-70
2023/01/22 22:08:50;;;;;;;0.20;0.10;;;5.00;99.90;;;;;;21155621;27;20811;-69
2023/01/22 22:18:56;;;;;;;0.20;0.10;;;4.90;99.90;;;;;;21194550;27;20399;-72
2023/01/22 22:29:00;;;;;;;0.20;0.10;;;4.30;99.90;;;;;;21153513;27;20383;-72
2023/01/22 22:39:06;;;;;;;1.40;1.40;;;4.00;99.90;;;;;;21235865;27;20461;-72
2023/01/22 22:49:13;;;;;;;0.20;0.10;;;4.20;99.90;;;;;;21214122;27;20401;-71
2023/01/22 22:59:19;;;;;;;0.20;0.10;;;4.20;99.90;;;;;;21234319;27;20401;-72
2023/01/22 23:09:23;;;;;;;0.20;0.10;;;4.30;99.90;;;;;;21215143;27;20389;-71
2023/01/22 23:19:29;;;;;;;0.20;0.10;;;4.20;99.90;;;;;;21214579;27;20419;-72
2023/01/22 23:29:33;;;;;;;0.20;0.10;;;4.10;99.90;;;;;;21197933;27;20486;-71
2023/01/22 23:39:38;;;;;;;0.20;0.10;;;4.00;99.90;;;;;;21217992;27;20397;-72
2023/01/22 23:49:42;;;;;;;0.20;0.10;;;4.30;99.90;;;;;;21224867;27;20399;-72
2023/01/22 23:59:49;;;;;;;0.20;0.10;;;4.30;99.90;;;;;;21222953;27;20436;-72
